Terminal Aerodrome Forecast
Issued by NWS Upton, NY

Home | Current Version | Previous Version | Text Only | Print | Product List | Glossary On
Versions: 1 2 3 4 5 6 7 8 9 10 11 12 13 14 15 16 17 18 19 20 21 22 23 24 25 26 27 28 29 30 31 32 33
126
FTUS41 KOKX 240535
TAFISP
TAF
KISP 240535Z 2406/2506 32005KT 5SM -RA BR OVC050
     FM240900 02005KT 4SM -RA BR BKN010
      TEMPO 2412/2415 BKN008
     FM241600 VRB04KT P6SM VCSH BKN015
     FM241900 18005KT P6SM VCSH FEW025 BKN070
     FM250000 25004KT P6SM SCT120=

USA.gov is the U.S. government's official web portal to all federal, state and local government web resources and services.